Time;durP1;ratioP1;P1;durP2;ratioP2;P2;SDS_P1;SDS_P2;PMS_P1;PMS_P2;Temp;Humidity;BMP_temperature;BMP_pressure;BME280_temperature;BME280_humidity;BME280_pressure;Samples;Min_cycle;Max_cycle;Signal;HPM_P1;HPM_P2
2023/05/15 00:01:36;;;;;;;15.18;12.02;;;;;;;12.45;100.00;101340.81;5060982;28;20048;-61
2023/05/15 00:04:05;;;;;;;16.95;12.27;;;;;;;12.34;100.00;101323.03;5061418;28;20040;-60
2023/05/15 00:06:33;;;;;;;17.75;11.95;;;;;;;12.31;100.00;101327.66;5043490;28;20048;-60
2023/05/15 00:09:01;;;;;;;20.67;13.25;;;;;;;12.27;100.00;101332.31;5061915;28;20060;-60
2023/05/15 00:11:29;;;;;;;18.83;13.45;;;;;;;12.21;100.00;101326.59;5056687;28;20041;-60
2023/05/15 00:13:57;;;;;;;18.83;13.43;;;;;;;12.05;100.00;101322.28;5063261;28;20049;-61
2023/05/15 00:16:25;;;;;;;18.98;14.02;;;;;;;12.07;100.00;101324.84;5060846;28;20488;-61
2023/05/15 00:18:55;;;;;;;19.92;13.20;;;;;;;12.05;100.00;101326.72;5056519;28;20044;-61
2023/05/15 00:21:26;;;;;;;17.80;12.75;;;;;;;11.96;100.00;101320.25;5042368;28;20045;-62
2023/05/15 00:23:55;;;;;;;18.08;12.73;;;;;;;12.02;100.00;101322.47;5041580;28;20144;-62
2023/05/15 00:26:25;;;;;;;18.77;12.77;;;;;;;12.06;100.00;101313.44;5058274;28;20110;-62
2023/05/15 00:28:53;;;;;;;18.88;12.60;;;;;;;12.04;100.00;101309.19;5060043;28;20771;-61
2023/05/15 00:31:24;;;;;;;16.92;12.05;;;;;;;11.98;100.00;101311.31;5055486;28;20353;-62
2023/05/15 00:33:52;;;;;;;18.65;12.48;;;;;;;11.94;100.00;101309.81;5059287;28;20518;-61
2023/05/15 00:36:23;;;;;;;20.02;11.93;;;;;;;11.92;100.00;101302.91;5056361;28;20110;-62
2023/05/15 00:38:51;;;;;;;16.92;11.73;;;;;;;11.99;100.00;101296.31;5058754;28;20504;-62
2023/05/15 00:41:23;;;;;;;18.05;12.07;;;;;;;12.00;100.00;101298.03;5059315;28;20047;-49
2023/05/15 00:43:53;;;;;;;17.48;11.45;;;;;;;12.00;100.00;101295.38;5062586;28;20049;-51
2023/05/15 00:46:21;;;;;;;15.48;11.48;;;;;;;11.99;100.00;101288.41;5068979;28;20713;-49
2023/05/15 00:48:50;;;;;;;21.00;11.48;;;;;;;11.90;100.00;101289.81;5061880;28;20097;-49
2023/05/15 00:51:18;;;;;;;16.63;11.02;;;;;;;11.93;100.00;101294.88;5057644;28;20421;-49
2023/05/15 00:53:51;;;;;;;18.38;11.32;;;;;;;11.83;100.00;101285.88;5055189;28;20469;-51
2023/05/15 00:56:20;;;;;;;15.05;10.35;;;;;;;11.86;100.00;101287.47;5061350;28;20564;-48
2023/05/15 00:58:49;;;;;;;19.02;11.80;;;;;;;11.95;100.00;101281.66;5057756;28;20048;-50
2023/05/15 01:01:17;;;;;;;16.38;10.57;;;;;;;11.94;100.00;101282.53;5059689;28;20044;-49
2023/05/15 01:03:46;;;;;;;14.68;10.88;;;;;;;12.00;100.00;101277.75;5062868;28;20035;-49
2023/05/15 01:06:14;;;;;;;15.48;10.90;;;;;;;11.97;100.00;101279.75;5057038;28;20098;-49
2023/05/15 01:08:44;;;;;;;15.60;10.55;;;;;;;11.92;100.00;101274.75;5060864;28;20135;-51
2023/05/15 01:11:14;;;;;;;16.77;11.50;;;;;;;11.97;100.00;101272.69;5059213;28;20463;-53
2023/05/15 01:13:43;;;;;;;18.13;12.20;;;;;;;11.90;100.00;101271.38;5056457;28;20051;-51
2023/05/15 01:16:11;;;;;;;15.95;11.02;;;;;;;11.78;100.00;101265.09;5062021;28;20041;-49
2023/05/15 01:18:39;;;;;;;17.02;11.32;;;;;;;11.66;100.00;101277.25;5058761;28;20044;-51
2023/05/15 01:21:45;;;;;;;15.45;11.02;;;;;;;11.66;100.00;101300.13;5056062;28;21060;-52
2023/05/15 01:24:31;;;;;;;18.10;11.82;;;;;;;11.68;100.00;101290.31;5057701;28;20075;-51
2023/05/15 01:27:18;;;;;;;16.98;11.15;;;;;;;11.63;100.00;101282.72;5058602;28;20040;-49
2023/05/15 01:29:56;;;;;;;17.33;11.07;;;;;;;11.61;100.00;101296.91;5059908;28;20743;-51
2023/05/15 01:32:38;;;;;;;15.90;11.05;;;;;;;11.53;100.00;101278.94;5059829;28;20124;-51
2023/05/15 01:35:14;;;;;;;17.65;11.63;;;;;;;11.55;100.00;101278.84;5059564;28;20047;-49
2023/05/15 01:37:48;;;;;;;17.08;10.70;;;;;;;11.56;100.00;101278.78;5052813;28;20065;-52
2023/05/15 01:40:20;;;;;;;18.48;10.85;;;;;;;11.59;100.00;101286.47;5069831;28;20079;-49
2023/05/15 01:42:54;;;;;;;15.77;10.80;;;;;;;11.53;100.00;101276.31;5064975;28;20045;-51
2023/05/15 01:45:27;;;;;;;16.90;11.50;;;;;;;11.45;100.00;101281.22;5057427;28;20583;-52
2023/05/15 01:47:56;;;;;;;17.58;11.70;;;;;;;11.36;100.00;101282.63;5059399;28;20124;-51
2023/05/15 01:50:26;;;;;;;21.17;11.38;;;;;;;11.37;100.00;101272.94;5058175;28;20045;-53
2023/05/15 01:52:58;;;;;;;14.90;11.25;;;;;;;11.37;100.00;101276.44;5056838;28;20366;-61
2023/05/15 01:55:27;;;;;;;17.77;10.45;;;;;;;11.36;100.00;101274.72;5058381;28;20049;-61
2023/05/15 01:58:01;;;;;;;16.67;11.43;;;;;;;11.37;100.00;101276.44;5058295;28;20060;-61
2023/05/15 02:00:30;;;;;;;15.27;10.68;;;;;;;11.35;100.00;101270.41;5055817;28;20099;-61
2023/05/15 02:02:59;;;;;;;16.70;11.63;;;;;;;11.37;100.00;101265.03;5055677;28;20067;-62
2023/05/15 02:05:31;;;;;;;16.35;11.32;;;;;;;11.33;100.00;101267.88;5057455;28;20049;-62
2023/05/15 02:08:00;;;;;;;16.20;10.68;;;;;;;11.31;100.00;101264.47;5058841;28;20074;-62
2023/05/15 02:10:29;;;;;;;15.27;10.50;;;;;;;11.37;100.00;101278.19;5058705;28;20094;-61
2023/05/15 02:13:00;;;;;;;15.15;10.80;;;;;;;11.33;100.00;101273.13;5058148;28;20048;-52
2023/05/15 02:15:29;;;;;;;16.08;10.07;;;;;;;11.26;100.00;101268.31;5040182;28;20048;-51
2023/05/15 02:17:57;;;;;;;15.15;10.88;;;;;;;11.30;100.00;101261.94;5059019;28;20040;-61
2023/05/15 02:20:25;;;;;;;15.85;11.23;;;;;;;11.26;100.00;101258.66;5044845;28;20053;-60
2023/05/15 02:22:54;;;;;;;17.33;12.25;;;;;;;11.24;100.00;101263.16;5059709;28;20080;-51
2023/05/15 02:25:34;;;;;;;18.70;11.32;;;;;;;11.16;100.00;101260.16;5058545;28;20036;-51
2023/05/15 02:28:12;;;;;;;18.30;11.60;;;;;;;11.06;100.00;101259.88;5059449;28;20163;-50
2023/05/15 02:30:49;;;;;;;19.10;11.68;;;;;;;11.08;100.00;101262.41;5054648;28;20044;-49
2023/05/15 02:33:25;;;;;;;17.17;11.63;;;;;;;11.05;100.00;101262.59;5059490;28;20124;-50
2023/05/15 02:35:58;;;;;;;20.13;11.75;;;;;;;10.98;100.00;101252.44;5058265;28;20111;-51
2023/05/15 02:38:30;;;;;;;19.63;12.02;;;;;;;11.04;100.00;101259.09;5057271;28;20045;-51
2023/05/15 02:41:00;;;;;;;16.55;12.02;;;;;;;10.99;100.00;101258.56;5058804;28;20056;-50
2023/05/15 02:43:32;;;;;;;18.77;13.20;;;;;;;11.04;100.00;101260.91;5059794;28;20071;-50
2023/05/15 02:46:00;;;;;;;19.90;12.40;;;;;;;11.02;100.00;101257.53;5055713;28;20061;-47
2023/05/15 02:48:29;;;;;;;19.10;12.15;;;;;;;11.02;100.00;101253.09;5056442;28;20072;-50
2023/05/15 02:50:57;;;;;;;19.75;13.20;;;;;;;10.89;100.00;101250.34;5058577;28;20561;-52
2023/05/15 02:53:25;;;;;;;19.90;13.18;;;;;;;10.80;100.00;101245.66;5069348;28;20407;-47
2023/05/15 02:55:53;;;;;;;20.98;13.93;;;;;;;10.78;100.00;101244.88;5068752;28;20092;-49
2023/05/15 02:58:22;;;;;;;19.98;12.98;;;;;;;10.78;100.00;101239.63;5069007;28;20102;-61
2023/05/15 03:00:51;;;;;;;23.42;14.45;;;;;;;10.77;100.00;101245.81;5068186;28;20458;-61
2023/05/15 03:03:19;;;;;;;21.88;14.77;;;;;;;10.79;100.00;101243.97;5069095;28;20040;-61
2023/05/15 03:05:47;;;;;;;19.60;13.88;;;;;;;10.77;100.00;101238.78;5053468;28;20044;-61
2023/05/15 03:08:15;;;;;;;19.05;13.20;;;;;;;10.79;100.00;101236.06;5049432;28;20045;-61
2023/05/15 03:10:43;;;;;;;20.30;13.63;;;;;;;10.85;100.00;101248.00;5061079;28;20072;-50
2023/05/15 03:13:12;;;;;;;21.00;12.98;;;;;;;10.76;100.00;101241.53;5059340;28;20038;-47
2023/05/15 03:15:40;;;;;;;20.75;13.52;;;;;;;10.73;100.00;101244.31;5055398;28;20043;-52
2023/05/15 03:18:09;;;;;;;20.05;13.38;;;;;;;10.69;100.00;101255.94;5055545;28;20033;-50
2023/05/15 03:20:37;;;;;;;23.15;13.77;;;;;;;10.64;100.00;101262.31;5055076;28;20040;-61
2023/05/15 03:23:05;;;;;;;43.58;13.70;;;;;;;10.64;100.00;101257.06;5055042;28;20070;-61
2023/05/15 03:25:33;;;;;;;19.08;13.63;;;;;;;10.58;100.00;101254.81;5055660;28;20128;-61
2023/05/15 03:28:02;;;;;;;22.42;14.68;;;;;;;10.47;100.00;101260.69;5048491;28;20076;-60
2023/05/15 03:30:30;;;;;;;23.48;15.00;;;;;;;10.39;100.00;101262.06;5055269;28;20438;-60
2023/05/15 03:33:02;;;;;;;22.02;13.88;;;;;;;10.41;100.00;101262.84;5056344;28;20501;-60
2023/05/15 03:35:32;;;;;;;19.45;14.63;;;;;;;10.39;100.00;101262.94;5053934;28;20049;-59
2023/05/15 03:38:00;;;;;;;23.67;15.38;;;;;;;10.38;100.00;101257.75;5068336;28;20057;-61
2023/05/15 03:40:28;;;;;;;24.23;16.00;;;;;;;10.38;100.00;101263.03;5068829;28;20564;-61
2023/05/15 03:42:57;;;;;;;26.70;16.63;;;;;;;10.37;100.00;101262.16;5059091;28;20091;-60
2023/05/15 03:45:25;;;;;;;25.60;16.33;;;;;;;10.36;100.00;101260.47;5055833;28;20060;-61
2023/05/15 03:47:56;;;;;;;27.50;17.38;;;;;;;10.30;100.00;101260.78;5069229;28;20048;-60
2023/05/15 03:50:24;;;;;;;29.42;19.73;;;;;;;10.27;100.00;101255.72;5069768;28;20048;-60
2023/05/15 03:52:54;;;;;;;29.88;18.02;;;;;;;10.25;100.00;101252.31;5069965;28;20087;-59
2023/05/15 03:55:22;;;;;;;27.10;18.60;;;;;;;10.27;100.00;101258.34;5067011;28;20105;-61
2023/05/15 03:57:51;;;;;;;29.27;19.05;;;;;;;10.27;100.00;101253.09;5058137;28;20098;-60
2023/05/15 04:00:19;;;;;;;35.72;21.77;;;;;;;10.24;100.00;101253.25;5068148;28;20123;-60
2023/05/15 04:02:47;;;;;;;37.42;20.95;;;;;;;10.25;100.00;101252.31;5057040;28;20129;-53
2023/05/15 04:05:16;;;;;;;35.10;20.77;;;;;;;10.24;100.00;101250.59;5052903;28;20041;-62
2023/05/15 04:07:44;;;;;;;37.22;21.60;;;;;;;10.20;100.00;101238.56;5062621;28;20033;-61
2023/05/15 04:10:14;;;;;;;36.15;21.00;;;;;;;10.30;100.00;101237.13;5057192;28;20516;-60
2023/05/15 04:12:42;;;;;;;34.03;20.85;;;;;;;10.28;100.00;101242.47;5057284;28;20455;-61
2023/05/15 04:15:17;;;;;;;31.25;18.90;;;;;;;10.35;100.00;101245.63;5060728;28;20508;-61
2023/05/15 04:17:46;;;;;;;;;;;;;;;10.39;100.00;101255.03;5059338;28;20090;-61
2023/05/15 04:20:15;;;;;;;32.53;20.05;;;;;;;10.41;100.00;101250.53;5055545;28;20404;-61
2023/05/15 04:22:47;;;;;;;30.55;18.65;;;;;;;10.46;100.00;101253.75;5057941;28;20067;-60
2023/05/15 04:25:17;;;;;;;32.95;20.10;;;;;;;10.49;100.00;101242.19;5056777;28;20048;-61
2023/05/15 04:27:45;;;;;;;31.85;21.05;;;;;;;10.50;100.00;101246.53;5056170;28;20044;-61
2023/05/15 04:30:13;;;;;;;32.95;19.80;;;;;;;10.57;100.00;101242.59;5040449;28;20491;-61
2023/05/15 04:32:42;;;;;;;30.23;18.67;;;;;;;10.67;100.00;101242.88;5044469;28;20053;-61
2023/05/15 04:35:12;;;;;;;29.45;19.23;;;;;;;10.73;100.00;101249.56;5057518;28;20080;-61
2023/05/15 04:37:42;;;;;;;28.33;19.27;;;;;;;10.77;100.00;101243.19;5058535;28;20571;-61
2023/05/15 04:40:11;;;;;;;27.13;19.40;;;;;;;10.82;100.00;101247.25;5059835;28;20044;-49
2023/05/15 04:42:40;;;;;;;28.85;18.77;;;;;;;10.86;100.00;101242.66;5059649;28;20090;-51
2023/05/15 04:45:09;;;;;;;28.95;18.70;;;;;;;10.89;100.00;101250.34;5060496;28;20052;-49
2023/05/15 04:47:37;;;;;;;28.73;19.35;;;;;;;10.88;100.00;101253.06;5058749;28;20051;-50
2023/05/15 04:50:06;;;;;;;35.65;19.70;;;;;;;10.92;100.00;101252.81;5062879;28;20542;-50
2023/05/15 04:52:34;;;;;;;29.45;19.25;;;;;;;10.94;100.00;101256.19;5059526;28;20106;-49
2023/05/15 04:55:02;;;;;;;29.38;18.58;;;;;;;11.03;100.00;101261.81;5059921;28;20369;-52
2023/05/15 04:57:34;;;;;;;29.63;19.08;;;;;;;11.04;100.00;101267.00;5061150;28;20037;-48
2023/05/15 05:00:09;;;;;;;30.63;18.80;;;;;;;11.04;100.00;101277.53;5057832;28;20044;-47
2023/05/15 05:02:37;;;;;;;27.02;18.85;;;;;;;11.09;100.00;101277.25;5059962;28;20052;-48
2023/05/15 05:05:06;;;;;;;29.45;18.77;;;;;;;11.10;100.00;101281.59;5062675;28;20047;-50
2023/05/15 05:07:34;;;;;;;30.25;19.83;;;;;;;11.09;100.00;101285.16;5056582;28;20052;-48
2023/05/15 05:10:03;;;;;;;29.50;19.88;;;;;;;11.11;100.00;101285.91;5064608;28;20544;-48
2023/05/15 05:12:31;;;;;;;29.35;20.05;;;;;;;11.07;100.00;101287.03;5057312;28;20511;-52
2023/05/15 05:14:59;;;;;;;29.67;20.10;;;;;;;11.03;100.00;101283.75;5059075;28;20435;-51
2023/05/15 05:17:29;;;;;;;32.83;19.63;;;;;;;11.08;100.00;101273.75;5059863;28;20823;-61
2023/05/15 05:19:57;;;;;;;31.10;20.23;;;;;;;11.13;100.00;101286.66;5062377;28;20403;-50
2023/05/15 05:22:25;;;;;;;29.35;18.98;;;;;;;11.16;100.00;101291.75;5057271;28;20068;-48
2023/05/15 05:24:53;;;;;;;27.90;19.10;;;;;;;11.23;100.00;101298.31;5064010;28;20736;-48
2023/05/15 05:27:22;;;;;;;27.45;18.80;;;;;;;11.22;100.00;101290.50;5056449;28;20044;-48
2023/05/15 05:29:52;;;;;;;26.50;18.17;;;;;;;11.21;100.00;101289.69;5057577;28;20127;-49
2023/05/15 05:32:20;;;;;;;28.48;19.20;;;;;;;11.21;100.00;101300.22;5040382;28;20517;-48
2023/05/15 05:34:49;;;;;;;25.00;17.73;;;;;;;11.27;100.00;101299.81;5056712;28;20038;-50
2023/05/15 05:37:18;;;;;;;27.35;17.73;;;;;;;11.31;100.00;101303.13;5069708;28;20105;-48
2023/05/15 05:39:46;;;;;;;27.83;18.63;;;;;;;11.29;100.00;101300.59;5052993;28;20483;-47
2023/05/15 05:42:14;;;;;;;23.52;16.08;;;;;;;11.27;100.00;101310.34;5052794;28;20593;-50
2023/05/15 05:44:42;;;;;;;30.67;17.65;;;;;;;11.39;100.00;101300.88;5066242;28;20070;-50
2023/05/15 05:47:10;;;;;;;24.77;16.83;;;;;;;11.44;100.00;101313.78;5065343;28;20396;-51
2023/05/15 05:49:39;;;;;;;26.65;17.00;;;;;;;11.44;100.00;101305.88;5058795;28;20052;-49
2023/05/15 05:52:09;;;;;;;26.85;17.55;;;;;;;11.43;100.00;101306.81;5044502;28;20098;-48
2023/05/15 05:54:40;;;;;;;25.80;16.92;;;;;;;11.50;100.00;101305.47;5059971;28;20048;-51
2023/05/15 05:57:10;;;;;;;26.13;17.55;;;;;;;11.58;100.00;101305.84;5053622;28;20059;-50
2023/05/15 05:59:38;;;;;;;26.10;15.55;;;;;;;11.55;100.00;101308.69;5057000;28;20564;-50
2023/05/15 06:02:07;;;;;;;22.70;15.85;;;;;;;11.58;100.00;101312.91;5057935;28;20036;-50
2023/05/15 06:04:35;;;;;;;25.40;16.75;;;;;;;11.64;100.00;101316.03;5060251;28;20053;-52
2023/05/15 06:07:03;;;;;;;24.52;16.75;;;;;;;11.77;100.00;101309.97;5061959;28;20047;-47
2023/05/15 06:09:36;;;;;;;23.60;16.30;;;;;;;11.81;100.00;101314.94;5059538;28;20094;-52
2023/05/15 06:12:06;;;;;;;24.02;17.02;;;;;;;11.75;100.00;101315.34;5042419;28;20052;-51
2023/05/15 06:14:35;;;;;;;22.75;16.27;;;;;;;11.78;100.00;101309.88;5068326;28;20722;-49
2023/05/15 06:17:03;;;;;;;23.42;15.32;;;;;;;11.93;100.00;101312.47;5073285;28;20044;-50
2023/05/15 06:19:31;;;;;;;20.13;15.63;;;;;;;12.07;100.00;101307.22;5067617;28;20064;-51
2023/05/15 06:21:59;;;;;;;22.13;14.80;;;;;;;12.25;100.00;101315.72;5054048;28;20060;-53
2023/05/15 06:24:30;;;;;;;23.88;15.73;;;;;;;12.40;100.00;101308.59;5057875;28;20040;-51
2023/05/15 06:27:00;;;;;;;22.70;15.95;;;;;;;12.52;100.00;101306.97;5054180;28;20048;-51
2023/05/15 06:29:28;;;;;;;20.75;14.15;;;;;;;12.68;100.00;101305.00;5058686;28;20278;-49
2023/05/15 06:31:56;;;;;;;22.00;15.38;;;;;;;12.72;100.00;101304.78;5055251;28;20396;-53
2023/05/15 06:34:24;;;;;;;21.77;15.27;;;;;;;12.84;100.00;101307.47;5041833;28;20876;-51
2023/05/15 06:36:52;;;;;;;19.45;14.85;;;;;;;12.97;100.00;101298.72;5058813;28;20044;-50
2023/05/15 06:39:21;;;;;;;23.42;15.00;;;;;;;13.09;100.00;101299.66;5060387;28;20040;-61
2023/05/15 06:41:49;;;;;;;19.55;14.50;;;;;;;13.21;100.00;101300.59;5056561;28;20045;-51
2023/05/15 06:44:18;;;;;;;21.48;14.32;;;;;;;13.21;100.00;101303.25;5057709;28;20526;-63
2023/05/15 06:46:46;;;;;;;20.33;14.70;;;;;;;13.28;100.00;101301.88;5058016;28;20979;-62
2023/05/15 06:49:15;;;;;;;19.80;13.30;;;;;;;13.45;100.00;101298.94;5054931;28;20048;-62
2023/05/15 06:51:45;;;;;;;19.20;13.75;;;;;;;13.61;100.00;101304.00;5060537;28;20053;-62
2023/05/15 06:54:13;;;;;;;18.80;13.55;;;;;;;13.67;100.00;101300.91;5045832;28;20507;-61
2023/05/15 06:56:42;;;;;;;21.67;14.35;;;;;;;13.81;100.00;101299.94;5059335;28;20135;-61
2023/05/15 06:59:10;;;;;;;19.52;13.90;;;;;;;13.99;100.00;101289.81;5058237;28;20040;-62
2023/05/15 07:01:39;;;;;;;20.52;14.40;;;;;;;14.13;100.00;101294.09;5060996;28;20504;-62
2023/05/15 07:04:07;;;;;;;21.13;15.20;;;;;;;14.24;100.00;101289.84;5062552;28;20040;-61
2023/05/15 07:06:36;;;;;;;22.30;14.57;;;;;;;14.32;100.00;101296.25;5072225;28;20052;-62
2023/05/15 07:09:05;;;;;;;21.67;14.45;;;;;;;14.43;100.00;101298.09;5072097;28;20075;-61
2023/05/15 07:11:36;;;;;;;18.88;14.27;;;;;;;14.52;100.00;101301.88;5072229;28;20068;-62
2023/05/15 07:14:04;;;;;;;22.63;14.23;;;;;;;14.62;100.00;101309.97;5072286;28;20052;-63
2023/05/15 07:16:32;;;;;;;19.75;14.55;;;;;;;14.77;100.00;101303.53;5054310;28;20499;-62
2023/05/15 07:19:02;;;;;;;19.60;14.70;;;;;;;14.76;100.00;101312.44;5070508;28;20051;-63
2023/05/15 07:21:30;;;;;;;21.08;14.65;;;;;;;14.85;100.00;101305.59;5067799;28;20407;-61
2023/05/15 07:23:58;;;;;;;16.67;12.85;;;;;;;14.87;100.00;101304.53;5068617;28;20064;-62
2023/05/15 07:26:26;;;;;;;18.52;13.25;;;;;;;14.96;100.00;101297.69;5069059;28;20605;-62
2023/05/15 07:29:05;;;;;;;18.40;13.68;;;;;;;15.08;100.00;101292.38;5072095;28;20052;-62
2023/05/15 07:31:33;;;;;;;19.45;13.80;;;;;;;15.29;100.00;101298.69;5065641;28;20058;-61
2023/05/15 07:34:03;;;;;;;21.70;12.77;;;;;;;15.47;100.00;101287.59;5056428;28;20651;-62
2023/05/15 07:36:31;;;;;;;17.20;12.82;;;;;;;15.58;100.00;101295.53;5070503;28;20052;-63
2023/05/15 07:38:59;;;;;;;18.10;13.02;;;;;;;15.67;100.00;101289.50;5071947;28;20040;-62
2023/05/15 07:41:29;;;;;;;17.10;13.57;;;;;;;15.79;100.00;101297.44;5072153;28;20484;-61
2023/05/15 07:43:57;;;;;;;17.15;13.40;;;;;;;15.87;100.00;101295.09;5065258;28;20101;-62
2023/05/15 07:46:25;;;;;;;15.45;11.57;;;;;;;16.12;100.00;101295.75;5054755;28;20088;-61
2023/05/15 07:48:54;;;;;;;18.02;13.50;;;;;;;16.20;100.00;101294.13;5058891;28;20434;-61
2023/05/15 07:51:26;;;;;;;17.95;11.88;;;;;;;16.41;100.00;101288.03;5067861;28;20043;-63
2023/05/15 07:53:55;;;;;;;17.58;12.35;;;;;;;16.65;100.00;101286.97;5068931;28;20512;-62
2023/05/15 07:56:23;;;;;;;17.95;13.27;;;;;;;16.75;100.00;101292.34;5069237;28;20135;-62
2023/05/15 07:58:54;;;;;;;19.45;12.70;;;;;;;16.86;100.00;101289.59;5068303;28;20044;-62
2023/05/15 08:01:22;;;;;;;15.52;12.15;;;;;;;16.99;100.00;101289.44;5054419;28;20047;-63
2023/05/15 08:03:50;;;;;;;16.55;12.50;;;;;;;17.13;100.00;101285.59;5072004;28;20093;-62
2023/05/15 08:06:19;;;;;;;18.65;12.43;;;;;;;17.09;100.00;101286.84;5072406;28;20052;-62
2023/05/15 08:08:51;;;;;;;14.63;11.38;;;;;;;17.11;100.00;101288.41;5053878;28;20048;-63
2023/05/15 08:11:20;;;;;;;16.40;11.60;;;;;;;17.14;100.00;101292.56;5063701;28;20053;-62
2023/05/15 08:13:49;;;;;;;17.38;12.07;;;;;;;17.27;100.00;101287.88;5055586;28;20041;-62
2023/05/15 08:16:18;;;;;;;15.93;11.98;;;;;;;17.60;100.00;101293.06;5055156;28;20504;-62
2023/05/15 08:18:47;;;;;;;14.75;11.60;;;;;;;17.68;100.00;101294.09;5053006;28;20057;-61
2023/05/15 08:21:15;;;;;;;13.88;10.77;;;;;;;17.85;100.00;101291.75;5052578;28;20411;-62
2023/05/15 08:23:45;;;;;;;16.15;12.48;;;;;;;17.78;100.00;101285.25;5052699;28;20047;-62
2023/05/15 08:26:15;;;;;;;16.52;11.55;;;;;;;18.05;100.00;101280.19;5052157;28;20044;-62
2023/05/15 08:28:43;;;;;;;14.40;11.88;;;;;;;18.06;100.00;101281.00;5052923;28;20053;-62
2023/05/15 08:31:11;;;;;;;15.48;11.48;;;;;;;18.27;100.00;101283.56;5036960;28;20330;-62
2023/05/15 08:33:39;;;;;;;13.18;10.43;;;;;;;18.35;100.00;101278.38;5053740;28;20053;-61
2023/05/15 08:36:08;;;;;;;13.00;10.00;;;;;;;18.60;100.00;101281.44;5050734;28;20112;-62
2023/05/15 08:38:36;;;;;;;13.95;10.85;;;;;;;18.78;100.00;101275.38;5065125;28;20067;-63
2023/05/15 08:41:11;;;;;;;13.45;9.85;;;;;;;18.91;100.00;101276.78;5071869;28;20559;-62
2023/05/15 08:43:44;;;;;;;17.67;10.65;;;;;;;19.08;100.00;101269.03;5069768;28;20484;-62
2023/05/15 08:46:12;;;;;;;12.93;10.73;;;;;;;19.35;100.00;101273.53;5057627;28;20049;-62
2023/05/15 08:48:42;;;;;;;13.35;10.00;;;;;;;19.54;100.00;101274.47;5061429;28;20036;-63
2023/05/15 08:51:11;;;;;;;13.52;10.23;;;;;;;19.69;100.00;101269.47;5060982;28;20036;-62
2023/05/15 08:53:39;;;;;;;13.50;9.77;;;;;;;19.93;100.00;101268.91;5065058;28;20123;-62
2023/05/15 08:56:07;;;;;;;13.63;10.32;;;;;;;20.09;100.00;101261.03;5059672;28;20105;-59
2023/05/15 08:58:35;;;;;;;14.68;10.93;;;;;;;19.98;100.00;101258.63;5062144;28;20045;-54
2023/05/15 09:01:06;;;;;;;13.98;10.35;;;;;;;20.29;100.00;101252.03;5059377;28;20036;-51
2023/05/15 09:03:34;;;;;;;13.75;10.88;;;;;;;20.24;100.00;101253.34;5062228;28;20523;-55
2023/05/15 09:06:03;;;;;;;15.60;11.77;;;;;;;20.14;100.00;101249.06;5058456;28;20048;-54
2023/05/15 09:08:33;;;;;;;13.75;11.00;;;;;;;20.45;100.00;101246.84;5059155;28;20045;-52
2023/05/15 09:11:04;;;;;;;15.13;12.48;;;;;;;20.52;100.00;101244.38;5057417;28;20492;-53
2023/05/15 09:13:32;;;;;;;18.60;10.35;;;;;;;20.20;100.00;101246.63;5059725;28;20045;-52
2023/05/15 09:16:03;;;;;;;12.43;8.82;;;;;;;20.61;100.00;101238.09;5058574;28;20503;-54
2023/05/15 09:18:33;;;;;;;13.75;9.82;;;;;;;20.68;100.00;101241.88;5059544;28;20045;-54
2023/05/15 09:21:23;;;;;;;14.60;10.85;;;;;;;20.94;100.00;101249.88;5060069;28;20488;-55
2023/05/15 09:23:51;;;;;;;15.30;10.05;;;;;;;21.04;100.00;101243.59;5058747;28;20258;-54
2023/05/15 09:26:20;;;;;;;12.60;10.38;;;;;;;21.38;100.00;101240.91;5060803;28;20661;-54
2023/05/15 09:28:52;;;;;;;15.57;11.57;;;;;;;21.52;100.00;101243.97;5056810;28;20102;-55
2023/05/15 09:31:22;;;;;;;16.30;12.02;;;;;;;21.52;100.00;101241.28;5058666;28;20032;-53
2023/05/15 09:34:00;;;;;;;18.13;14.20;;;;;;;21.63;100.00;101251.72;5061272;28;20089;-55
2023/05/15 09:36:29;;;;;;;17.70;12.52;;;;;;;21.56;100.00;101242.66;5064104;28;20130;-55
2023/05/15 09:38:59;;;;;;;14.15;11.23;;;;;;;21.80;98.50;101243.72;5059526;28;20565;-55
2023/05/15 09:41:28;;;;;;;14.30;10.98;;;;;;;22.10;100.00;101250.28;5061217;28;20044;-55
2023/05/15 09:43:56;;;;;;;14.63;12.05;;;;;;;22.17;95.89;101242.41;5064733;28;20106;-55
2023/05/15 09:46:24;;;;;;;13.98;11.63;;;;;;;21.97;100.00;101248.09;5066751;28;20060;-56
2023/05/15 09:48:55;;;;;;;15.75;11.13;;;;;;;22.38;94.59;101250.00;5060176;28;20115;-53
2023/05/15 09:51:24;;;;;;;15.45;12.20;;;;;;;22.31;93.85;101243.63;5066695;28;20048;-57
2023/05/15 09:53:53;;;;;;;15.55;11.73;;;;;;;22.59;93.19;101238.75;5070430;28;20045;-54
2023/05/15 09:56:21;;;;;;;15.52;12.75;;;;;;;22.61;93.28;101236.75;5070491;28;20125;-64
2023/05/15 09:58:54;;;;;;;16.27;12.60;;;;;;;22.64;91.97;101232.91;5073421;28;20542;-64
2023/05/15 10:01:24;;;;;;;15.20;11.82;;;;;;;22.65;89.15;101234.56;5071812;28;20040;-64
2023/05/15 10:04:00;;;;;;;16.10;12.82;;;;;;;22.54;88.40;101225.88;5069965;28;20059;-64
2023/05/15 10:06:34;;;;;;;15.82;12.30;;;;;;;22.62;90.36;101235.75;5069326;28;20048;-65
2023/05/15 10:09:03;;;;;;;15.75;14.00;;;;;;;22.91;90.69;101229.81;5069387;28;20045;-64
2023/05/15 10:11:35;;;;;;;17.58;14.90;;;;;;;22.88;86.51;101226.66;5069886;28;20043;-66
2023/05/15 10:14:05;;;;;;;16.50;13.10;;;;;;;22.90;89.88;101227.31;5071261;28;20053;-63
2023/05/15 10:16:35;;;;;;;17.33;14.77;;;;;;;22.79;88.17;101233.84;5070449;28;20041;-64
2023/05/15 10:19:06;;;;;;;15.55;13.07;;;;;;;22.83;84.54;101237.03;5069383;28;20460;-63
2023/05/15 10:21:36;;;;;;;13.88;10.85;;;;;;;22.68;82.86;101235.06;5069241;28;20123;-64
2023/05/15 10:24:06;;;;;;;10.48;8.77;;;;;;;22.66;76.51;101231.72;5069287;28;20067;-63
2023/05/15 10:26:38;;;;;;;12.70;8.38;;;;;;;22.44;74.18;101231.41;5051608;28;20411;-65
2023/05/15 10:29:07;;;;;;;11.10;8.47;;;;;;;22.34;70.28;101238.78;5069263;28;20446;-64
2023/05/15 10:31:36;;;;;;;13.55;7.95;;;;;;;22.34;71.32;101240.59;5069216;28;21094;-64
2023/05/15 10:34:06;;;;;;;11.23;8.23;;;;;;;22.35;70.39;101245.81;5069487;28;20051;-62
2023/05/15 10:36:36;;;;;;;12.32;9.00;;;;;;;22.49;70.37;101251.50;5069034;28;20076;-63
2023/05/15 10:39:06;;;;;;;11.15;8.27;;;;;;;22.12;68.03;101250.97;5069585;28;20548;-64
2023/05/15 10:41:38;;;;;;;12.13;8.13;;;;;;;22.53;68.86;101242.94;5051740;28;20423;-65
2023/05/15 10:44:06;;;;;;;11.88;9.23;;;;;;;22.22;64.83;101251.66;5068672;28;20048;-64
2023/05/15 10:46:36;;;;;;;10.65;7.72;;;;;;;22.33;64.50;101252.31;5051033;28;20056;-64
2023/05/15 10:49:05;;;;;;;8.93;7.03;;;;;;;22.54;63.68;101249.16;5069146;28;20044;-64
2023/05/15 10:51:35;;;;;;;12.55;9.43;;;;;;;22.16;61.68;101246.94;5068622;28;20700;-65
2023/05/15 10:54:04;;;;;;;13.30;9.40;;;;;;;22.22;65.85;101234.72;5068890;28;20032;-64
2023/05/15 10:56:33;;;;;;;11.38;9.35;;;;;;;22.35;64.86;101248.50;5069073;28;20051;-65
2023/05/15 10:59:06;;;;;;;12.82;10.52;;;;;;;22.01;66.98;101244.09;5068773;28;20048;-65
2023/05/15 11:01:36;;;;;;;15.15;10.57;;;;;;;22.17;67.97;101239.72;5051085;28;20044;-64
2023/05/15 11:04:10;;;;;;;13.82;10.38;;;;;;;22.05;67.90;101244.59;5068555;28;20820;-64
2023/05/15 11:06:41;;;;;;;12.00;9.15;;;;;;;22.00;66.69;101242.41;5060006;28;20083;-63
2023/05/15 11:09:36;;;;;;;11.45;8.63;;;;;;;21.87;63.55;101239.38;5052500;28;20498;-63
2023/05/15 11:12:05;;;;;;;10.88;7.32;;;;;;;21.77;58.88;101240.38;5048635;28;20056;-64
2023/05/15 11:14:37;;;;;;;9.80;6.70;;;;;;;22.10;59.26;101259.16;5057068;28;20115;-64
2023/05/15 11:17:06;;;;;;;9.32;6.20;;;;;;;22.10;56.85;101244.91;5055008;28;20113;-64